sensor_id;sensor_type;location;lat;lon;timestamp;P1;durP1;ratioP1;P2;durP2;ratioP2
31660;SDS011;18267;52.234;7.444;2023-04-15T00:00:14;8.60;;;3.63;;
31660;SDS011;18267;52.234;7.444;2023-04-15T00:02:40;6.45;;;3.95;;
31660;SDS011;18267;52.234;7.444;2023-04-15T00:05:06;8.63;;;3.70;;
31660;SDS011;18267;52.234;7.444;2023-04-15T00:07:32;9.00;;;4.07;;
31660;SDS011;18267;52.234;7.444;2023-04-15T00:09:58;9.95;;;3.97;;
31660;SDS011;18267;52.234;7.444;2023-04-15T00:12:24;8.30;;;3.88;;
31660;SDS011;18267;52.234;7.444;2023-04-15T00:14:50;6.10;;;4.28;;
31660;SDS011;18267;52.234;7.444;2023-04-15T00:17:15;6.35;;;4.00;;
31660;SDS011;18267;52.234;7.444;2023-04-15T00:19:41;9.10;;;4.03;;
31660;SDS011;18267;52.234;7.444;2023-04-15T00:22:08;6.07;;;3.60;;
31660;SDS011;18267;52.234;7.444;2023-04-15T00:24:34;5.68;;;3.53;;
31660;SDS011;18267;52.234;7.444;2023-04-15T00:26:59;6.47;;;3.90;;
31660;SDS011;18267;52.234;7.444;2023-04-15T00:29:25;5.57;;;4.03;;
31660;SDS011;18267;52.234;7.444;2023-04-15T00:31:50;7.47;;;4.00;;
31660;SDS011;18267;52.234;7.444;2023-04-15T00:34:16;5.57;;;3.53;;
31660;SDS011;18267;52.234;7.444;2023-04-15T00:36:42;10.73;;;4.20;;
31660;SDS011;18267;52.234;7.444;2023-04-15T00:39:08;8.38;;;3.88;;
31660;SDS011;18267;52.234;7.444;2023-04-15T00:41:34;13.38;;;3.75;;
31660;SDS011;18267;52.234;7.444;2023-04-15T00:44:03;5.05;;;3.42;;
31660;SDS011;18267;52.234;7.444;2023-04-15T00:46:29;7.63;;;4.43;;
31660;SDS011;18267;52.234;7.444;2023-04-15T00:48:56;4.88;;;3.80;;
31660;SDS011;18267;52.234;7.444;2023-04-15T00:51:21;4.47;;;3.75;;
31660;SDS011;18267;52.234;7.444;2023-04-15T00:53:47;6.53;;;4.22;;
31660;SDS011;18267;52.234;7.444;2023-04-15T00:56:12;4.22;;;3.83;;
31660;SDS011;18267;52.234;7.444;2023-04-15T00:58:38;10.13;;;4.28;;
31660;SDS011;18267;52.234;7.444;2023-04-15T01:01:05;7.15;;;4.05;;
31660;SDS011;18267;52.234;7.444;2023-04-15T01:03:30;5.45;;;3.85;;
31660;SDS011;18267;52.234;7.444;2023-04-15T01:05:56;11.90;;;3.80;;
31660;SDS011;18267;52.234;7.444;2023-04-15T01:08:26;5.57;;;3.78;;
31660;SDS011;18267;52.234;7.444;2023-04-15T01:10:53;6.00;;;3.58;;
31660;SDS011;18267;52.234;7.444;2023-04-15T01:13:23;7.38;;;4.05;;
31660;SDS011;18267;52.234;7.444;2023-04-15T01:15:49;5.78;;;3.97;;
31660;SDS011;18267;52.234;7.444;2023-04-15T01:18:16;4.93;;;3.65;;
31660;SDS011;18267;52.234;7.444;2023-04-15T01:20:44;7.80;;;3.80;;
31660;SDS011;18267;52.234;7.444;2023-04-15T01:23:10;6.55;;;4.30;;
31660;SDS011;18267;52.234;7.444;2023-04-15T01:25:37;4.72;;;3.45;;
31660;SDS011;18267;52.234;7.444;2023-04-15T01:28:03;6.50;;;3.75;;
31660;SDS011;18267;52.234;7.444;2023-04-15T01:30:32;5.25;;;3.85;;
31660;SDS011;18267;52.234;7.444;2023-04-15T01:32:58;10.13;;;4.30;;
31660;SDS011;18267;52.234;7.444;2023-04-15T01:35:24;6.28;;;4.28;;
31660;SDS011;18267;52.234;7.444;2023-04-15T01:37:51;7.93;;;4.15;;
31660;SDS011;18267;52.234;7.444;2023-04-15T01:40:18;5.95;;;3.95;;
31660;SDS011;18267;52.234;7.444;2023-04-15T01:42:44;7.88;;;4.38;;
31660;SDS011;18267;52.234;7.444;2023-04-15T01:45:10;7.43;;;4.05;;
31660;SDS011;18267;52.234;7.444;2023-04-15T01:47:40;8.57;;;4.70;;
31660;SDS011;18267;52.234;7.444;2023-04-15T01:50:06;7.53;;;4.82;;
31660;SDS011;18267;52.234;7.444;2023-04-15T01:52:32;8.43;;;4.50;;
31660;SDS011;18267;52.234;7.444;2023-04-15T01:54:57;9.23;;;5.13;;
31660;SDS011;18267;52.234;7.444;2023-04-15T01:57:23;7.40;;;4.60;;
31660;SDS011;18267;52.234;7.444;2023-04-15T01:59:49;8.00;;;4.68;;
31660;SDS011;18267;52.234;7.444;2023-04-15T02:02:14;6.65;;;4.57;;
31660;SDS011;18267;52.234;7.444;2023-04-15T02:04:41;9.88;;;4.78;;
31660;SDS011;18267;52.234;7.444;2023-04-15T02:07:07;15.77;;;5.05;;
31660;SDS011;18267;52.234;7.444;2023-04-15T02:09:32;8.18;;;4.75;;
31660;SDS011;18267;52.234;7.444;2023-04-15T02:11:58;8.63;;;4.70;;
31660;SDS011;18267;52.234;7.444;2023-04-15T02:14:24;10.55;;;4.85;;
31660;SDS011;18267;52.234;7.444;2023-04-15T02:16:50;8.88;;;4.63;;
31660;SDS011;18267;52.234;7.444;2023-04-15T02:19:15;6.85;;;4.68;;
31660;SDS011;18267;52.234;7.444;2023-04-15T02:21:42;7.75;;;4.75;;
31660;SDS011;18267;52.234;7.444;2023-04-15T02:24:08;9.88;;;5.07;;
31660;SDS011;18267;52.234;7.444;2023-04-15T02:26:33;12.10;;;4.93;;
31660;SDS011;18267;52.234;7.444;2023-04-15T02:28:59;7.50;;;4.85;;
31660;SDS011;18267;52.234;7.444;2023-04-15T02:31:24;7.07;;;4.82;;
31660;SDS011;18267;52.234;7.444;2023-04-15T02:33:50;5.93;;;4.40;;
31660;SDS011;18267;52.234;7.444;2023-04-15T02:36:16;6.72;;;4.70;;
31660;SDS011;18267;52.234;7.444;2023-04-15T02:38:42;10.50;;;5.18;;
31660;SDS011;18267;52.234;7.444;2023-04-15T02:41:10;7.07;;;5.15;;
31660;SDS011;18267;52.234;7.444;2023-04-15T02:43:36;8.23;;;4.82;;
31660;SDS011;18267;52.234;7.444;2023-04-15T02:46:03;9.75;;;5.47;;
31660;SDS011;18267;52.234;7.444;2023-04-15T02:48:31;11.77;;;4.68;;
31660;SDS011;18267;52.234;7.444;2023-04-15T02:53:41;9.93;;;4.88;;
31660;SDS011;18267;52.234;7.444;2023-04-15T02:56:08;10.40;;;5.57;;
31660;SDS011;18267;52.234;7.444;2023-04-15T02:58:34;12.23;;;5.50;;
31660;SDS011;18267;52.234;7.444;2023-04-15T03:01:00;10.20;;;5.47;;
31660;SDS011;18267;52.234;7.444;2023-04-15T03:03:26;8.18;;;5.97;;
31660;SDS011;18267;52.234;7.444;2023-04-15T03:05:54;9.82;;;5.72;;
31660;SDS011;18267;52.234;7.444;2023-04-15T03:08:20;7.68;;;5.55;;
31660;SDS011;18267;52.234;7.444;2023-04-15T03:10:46;8.65;;;5.50;;
31660;SDS011;18267;52.234;7.444;2023-04-15T03:13:12;11.45;;;5.85;;
31660;SDS011;18267;52.234;7.444;2023-04-15T03:15:37;8.85;;;5.40;;
31660;SDS011;18267;52.234;7.444;2023-04-15T03:18:03;8.32;;;5.65;;
31660;SDS011;18267;52.234;7.444;2023-04-15T03:20:28;9.55;;;5.32;;
31660;SDS011;18267;52.234;7.444;2023-04-15T03:22:54;9.57;;;5.57;;
31660;SDS011;18267;52.234;7.444;2023-04-15T03:25:21;11.23;;;5.88;;
31660;SDS011;18267;52.234;7.444;2023-04-15T03:27:47;12.93;;;5.70;;
31660;SDS011;18267;52.234;7.444;2023-04-15T03:30:12;10.35;;;6.47;;
31660;SDS011;18267;52.234;7.444;2023-04-15T03:32:38;12.00;;;6.40;;
31660;SDS011;18267;52.234;7.444;2023-04-15T03:35:04;10.73;;;5.97;;
31660;SDS011;18267;52.234;7.444;2023-04-15T03:37:30;11.93;;;6.10;;
31660;SDS011;18267;52.234;7.444;2023-04-15T03:39:56;10.48;;;5.57;;
31660;SDS011;18267;52.234;7.444;2023-04-15T03:42:21;10.00;;;6.03;;
31660;SDS011;18267;52.234;7.444;2023-04-15T03:44:47;11.85;;;6.60;;
31660;SDS011;18267;52.234;7.444;2023-04-15T03:47:12;10.48;;;6.10;;
31660;SDS011;18267;52.234;7.444;2023-04-15T03:49:38;8.85;;;5.85;;
31660;SDS011;18267;52.234;7.444;2023-04-15T03:52:04;10.35;;;6.15;;
31660;SDS011;18267;52.234;7.444;2023-04-15T03:54:30;10.20;;;5.85;;
31660;SDS011;18267;52.234;7.444;2023-04-15T03:56:55;11.98;;;5.70;;
31660;SDS011;18267;52.234;7.444;2023-04-15T03:59:21;10.88;;;6.05;;
31660;SDS011;18267;52.234;7.444;2023-04-15T04:01:47;10.00;;;5.97;;
31660;SDS011;18267;52.234;7.444;2023-04-15T04:04:13;7.60;;;5.88;;
31660;SDS011;18267;52.234;7.444;2023-04-15T04:06:38;9.40;;;5.72;;
31660;SDS011;18267;52.234;7.444;2023-04-15T04:09:04;9.02;;;6.10;;
31660;SDS011;18267;52.234;7.444;2023-04-15T04:11:29;12.45;;;6.18;;
31660;SDS011;18267;52.234;7.444;2023-04-15T04:13:55;13.38;;;6.53;;
31660;SDS011;18267;52.234;7.444;2023-04-15T04:16:21;12.15;;;6.75;;
31660;SDS011;18267;52.234;7.444;2023-04-15T04:18:46;11.35;;;6.07;;
31660;SDS011;18267;52.234;7.444;2023-04-15T04:21:12;8.10;;;6.03;;
31660;SDS011;18267;52.234;7.444;2023-04-15T04:23:38;12.10;;;6.28;;
31660;SDS011;18267;52.234;7.444;2023-04-15T04:26:03;9.38;;;6.30;;
31660;SDS011;18267;52.234;7.444;2023-04-15T04:28:29;11.20;;;6.53;;
31660;SDS011;18267;52.234;7.444;2023-04-15T04:30:54;9.73;;;5.90;;
31660;SDS011;18267;52.234;7.444;2023-04-15T04:33:20;10.23;;;5.72;;
31660;SDS011;18267;52.234;7.444;2023-04-15T04:35:47;12.07;;;6.88;;
31660;SDS011;18267;52.234;7.444;2023-04-15T04:38:13;8.30;;;6.13;;
31660;SDS011;18267;52.234;7.444;2023-04-15T04:40:38;17.73;;;6.85;;
31660;SDS011;18267;52.234;7.444;2023-04-15T04:43:04;11.98;;;6.20;;
31660;SDS011;18267;52.234;7.444;2023-04-15T04:45:29;9.57;;;6.15;;
31660;SDS011;18267;52.234;7.444;2023-04-15T04:47:55;12.32;;;6.20;;
31660;SDS011;18267;52.234;7.444;2023-04-15T04:50:20;10.30;;;6.25;;
31660;SDS011;18267;52.234;7.444;2023-04-15T04:52:46;10.25;;;6.32;;
31660;SDS011;18267;52.234;7.444;2023-04-15T04:55:11;12.70;;;6.43;;
31660;SDS011;18267;52.234;7.444;2023-04-15T04:57:37;13.77;;;6.60;;
31660;SDS011;18267;52.234;7.444;2023-04-15T05:00:06;11.23;;;6.20;;
31660;SDS011;18267;52.234;7.444;2023-04-15T05:02:33;11.18;;;6.72;;
31660;SDS011;18267;52.234;7.444;2023-04-15T05:04:58;11.18;;;6.30;;
31660;SDS011;18267;52.234;7.444;2023-04-15T05:07:25;13.05;;;6.68;;
31660;SDS011;18267;52.234;7.444;2023-04-15T05:09:51;10.52;;;6.30;;
31660;SDS011;18267;52.234;7.444;2023-04-15T05:12:17;11.98;;;6.35;;
31660;SDS011;18267;52.234;7.444;2023-04-15T05:14:42;12.07;;;6.90;;
31660;SDS011;18267;52.234;7.444;2023-04-15T05:17:08;12.48;;;6.75;;
31660;SDS011;18267;52.234;7.444;2023-04-15T05:19:35;12.70;;;6.55;;
31660;SDS011;18267;52.234;7.444;2023-04-15T05:22:01;15.00;;;7.13;;
31660;SDS011;18267;52.234;7.444;2023-04-15T05:24:27;10.38;;;6.38;;
31660;SDS011;18267;52.234;7.444;2023-04-15T05:26:53;10.73;;;6.88;;
31660;SDS011;18267;52.234;7.444;2023-04-15T05:29:18;13.13;;;7.15;;
31660;SDS011;18267;52.234;7.444;2023-04-15T05:31:44;11.30;;;7.50;;
31660;SDS011;18267;52.234;7.444;2023-04-15T05:34:09;12.73;;;8.20;;
31660;SDS011;18267;52.234;7.444;2023-04-15T05:36:36;14.32;;;8.00;;
31660;SDS011;18267;52.234;7.444;2023-04-15T05:39:02;17.50;;;9.55;;
31660;SDS011;18267;52.234;7.444;2023-04-15T05:41:28;18.90;;;9.15;;
31660;SDS011;18267;52.234;7.444;2023-04-15T05:43:53;18.05;;;9.35;;
31660;SDS011;18267;52.234;7.444;2023-04-15T05:56:50;20.48;;;8.50;;
31660;SDS011;18267;52.234;7.444;2023-04-15T05:59:15;20.58;;;10.40;;
31660;SDS011;18267;52.234;7.444;2023-04-15T06:01:41;17.58;;;9.38;;
31660;SDS011;18267;52.234;7.444;2023-04-15T06:04:06;18.83;;;9.80;;
31660;SDS011;18267;52.234;7.444;2023-04-15T06:06:32;26.00;;;9.93;;
31660;SDS011;18267;52.234;7.444;2023-04-15T06:08:58;15.32;;;9.23;;
31660;SDS011;18267;52.234;7.444;2023-04-15T06:11:24;19.02;;;10.00;;
31660;SDS011;18267;52.234;7.444;2023-04-15T06:13:50;23.10;;;9.93;;
31660;SDS011;18267;52.234;7.444;2023-04-15T06:16:16;19.17;;;9.73;;
31660;SDS011;18267;52.234;7.444;2023-04-15T06:18:41;19.05;;;9.32;;
31660;SDS011;18267;52.234;7.444;2023-04-15T06:21:07;23.52;;;10.98;;
31660;SDS011;18267;52.234;7.444;2023-04-15T06:23:33;19.52;;;9.65;;
31660;SDS011;18267;52.234;7.444;2023-04-15T06:26:00;19.10;;;9.65;;
31660;SDS011;18267;52.234;7.444;2023-04-15T06:28:26;22.58;;;9.82;;
31660;SDS011;18267;52.234;7.444;2023-04-15T06:30:52;21.67;;;9.73;;
31660;SDS011;18267;52.234;7.444;2023-04-15T06:33:17;19.58;;;10.07;;
31660;SDS011;18267;52.234;7.444;2023-04-15T06:35:43;15.65;;;8.93;;
31660;SDS011;18267;52.234;7.444;2023-04-15T06:38:08;23.08;;;11.32;;
31660;SDS011;18267;52.234;7.444;2023-04-15T06:40:34;20.25;;;10.02;;
31660;SDS011;18267;52.234;7.444;2023-04-15T06:43:00;27.55;;;9.55;;
31660;SDS011;18267;52.234;7.444;2023-04-15T06:45:25;17.10;;;10.27;;
31660;SDS011;18267;52.234;7.444;2023-04-15T06:47:51;22.08;;;10.00;;
31660;SDS011;18267;52.234;7.444;2023-04-15T06:50:16;23.30;;;11.38;;
31660;SDS011;18267;52.234;7.444;2023-04-15T06:52:45;21.70;;;10.20;;
31660;SDS011;18267;52.234;7.444;2023-04-15T06:55:12;19.63;;;10.55;;
31660;SDS011;18267;52.234;7.444;2023-04-15T06:57:38;21.00;;;10.07;;
31660;SDS011;18267;52.234;7.444;2023-04-15T07:00:04;19.35;;;10.13;;
31660;SDS011;18267;52.234;7.444;2023-04-15T07:02:31;18.42;;;9.32;;
31660;SDS011;18267;52.234;7.444;2023-04-15T07:04:57;19.50;;;10.27;;
31660;SDS011;18267;52.234;7.444;2023-04-15T07:07:23;22.45;;;10.07;;
31660;SDS011;18267;52.234;7.444;2023-04-15T07:09:49;19.50;;;9.82;;
31660;SDS011;18267;52.234;7.444;2023-04-15T07:12:15;20.77;;;9.68;;
31660;SDS011;18267;52.234;7.444;2023-04-15T07:14:40;24.05;;;10.98;;
31660;SDS011;18267;52.234;7.444;2023-04-15T07:17:07;17.38;;;9.63;;
31660;SDS011;18267;52.234;7.444;2023-04-15T07:19:33;22.88;;;11.27;;
31660;SDS011;18267;52.234;7.444;2023-04-15T07:21:59;19.10;;;9.60;;
31660;SDS011;18267;52.234;7.444;2023-04-15T07:24:24;20.65;;;9.90;;
31660;SDS011;18267;52.234;7.444;2023-04-15T07:26:51;22.80;;;10.45;;
31660;SDS011;18267;52.234;7.444;2023-04-15T07:29:18;18.13;;;9.60;;
31660;SDS011;18267;52.234;7.444;2023-04-15T07:31:43;19.70;;;9.85;;
31660;SDS011;18267;52.234;7.444;2023-04-15T07:34:09;17.08;;;9.73;;
31660;SDS011;18267;52.234;7.444;2023-04-15T07:36:34;17.02;;;9.27;;
31660;SDS011;18267;52.234;7.444;2023-04-15T07:39:00;15.80;;;8.70;;
31660;SDS011;18267;52.234;7.444;2023-04-15T07:41:27;20.45;;;9.80;;
31660;SDS011;18267;52.234;7.444;2023-04-15T07:43:53;17.25;;;9.13;;
31660;SDS011;18267;52.234;7.444;2023-04-15T07:46:19;17.95;;;8.68;;
31660;SDS011;18267;52.234;7.444;2023-04-15T07:48:45;20.90;;;7.97;;
31660;SDS011;18267;52.234;7.444;2023-04-15T07:51:11;13.70;;;7.75;;
31660;SDS011;18267;52.234;7.444;2023-04-15T07:53:36;18.83;;;7.70;;
31660;SDS011;18267;52.234;7.444;2023-04-15T07:56:02;15.93;;;7.30;;
31660;SDS011;18267;52.234;7.444;2023-04-15T07:58:28;14.70;;;8.10;;
31660;SDS011;18267;52.234;7.444;2023-04-15T08:00:53;18.70;;;8.73;;
31660;SDS011;18267;52.234;7.444;2023-04-15T08:03:20;18.48;;;7.97;;
31660;SDS011;18267;52.234;7.444;2023-04-15T08:05:46;11.02;;;7.60;;
31660;SDS011;18267;52.234;7.444;2023-04-15T08:08:12;16.58;;;7.60;;
31660;SDS011;18267;52.234;7.444;2023-04-15T08:10:38;20.35;;;7.07;;
31660;SDS011;18267;52.234;7.444;2023-04-15T08:13:03;11.48;;;6.97;;
31660;SDS011;18267;52.234;7.444;2023-04-15T08:15:29;23.42;;;8.32;;
31660;SDS011;18267;52.234;7.444;2023-04-15T08:17:56;11.55;;;7.35;;
31660;SDS011;18267;52.234;7.444;2023-04-15T08:20:24;12.02;;;6.80;;
31660;SDS011;18267;52.234;7.444;2023-04-15T08:22:50;16.63;;;7.65;;
31660;SDS011;18267;52.234;7.444;2023-04-15T08:25:16;10.23;;;6.88;;
31660;SDS011;18267;52.234;7.444;2023-04-15T08:27:44;15.55;;;8.68;;
31660;SDS011;18267;52.234;7.444;2023-04-15T08:30:10;15.55;;;7.70;;
31660;SDS011;18267;52.234;7.444;2023-04-15T08:32:36;15.88;;;8.27;;
31660;SDS011;18267;52.234;7.444;2023-04-15T08:35:01;14.25;;;7.40;;
31660;SDS011;18267;52.234;7.444;2023-04-15T08:37:27;15.40;;;6.80;;
31660;SDS011;18267;52.234;7.444;2023-04-15T08:39:53;12.27;;;7.13;;
31660;SDS011;18267;52.234;7.444;2023-04-15T08:42:22;12.25;;;6.68;;
31660;SDS011;18267;52.234;7.444;2023-04-15T08:44:51;14.30;;;7.00;;
31660;SDS011;18267;52.234;7.444;2023-04-15T08:47:19;13.50;;;7.07;;
31660;SDS011;18267;52.234;7.444;2023-04-15T08:49:48;12.55;;;6.90;;
31660;SDS011;18267;52.234;7.444;2023-04-15T08:52:18;12.23;;;6.03;;
31660;SDS011;18267;52.234;7.444;2023-04-15T08:54:44;12.57;;;7.10;;
31660;SDS011;18267;52.234;7.444;2023-04-15T08:57:10;10.07;;;6.13;;
31660;SDS011;18267;52.234;7.444;2023-04-15T08:59:36;13.65;;;7.05;;
31660;SDS011;18267;52.234;7.444;2023-04-15T09:02:02;10.05;;;6.00;;
31660;SDS011;18267;52.234;7.444;2023-04-15T09:04:28;15.25;;;6.38;;
31660;SDS011;18267;52.234;7.444;2023-04-15T09:06:54;12.43;;;6.72;;
31660;SDS011;18267;52.234;7.444;2023-04-15T09:09:21;10.38;;;6.53;;
31660;SDS011;18267;52.234;7.444;2023-04-15T09:11:46;12.50;;;6.22;;
31660;SDS011;18267;52.234;7.444;2023-04-15T09:14:13;10.57;;;5.80;;
31660;SDS011;18267;52.234;7.444;2023-04-15T09:16:58;16.90;;;7.15;;
31660;SDS011;18267;52.234;7.444;2023-04-15T09:19:24;15.23;;;6.93;;
31660;SDS011;18267;52.234;7.444;2023-04-15T09:21:54;12.48;;;6.05;;
31660;SDS011;18267;52.234;7.444;2023-04-15T09:24:21;11.73;;;6.05;;
31660;SDS011;18267;52.234;7.444;2023-04-15T09:26:47;12.18;;;6.68;;
31660;SDS011;18267;52.234;7.444;2023-04-15T09:29:17;8.85;;;5.85;;
31660;SDS011;18267;52.234;7.444;2023-04-15T09:31:43;10.07;;;5.32;;
31660;SDS011;18267;52.234;7.444;2023-04-15T09:34:08;9.90;;;5.82;;
31660;SDS011;18267;52.234;7.444;2023-04-15T09:39:13;9.95;;;5.80;;
31660;SDS011;18267;52.234;7.444;2023-04-15T09:41:38;12.07;;;6.13;;
31660;SDS011;18267;52.234;7.444;2023-04-15T09:44:04;9.45;;;6.15;;
31660;SDS011;18267;52.234;7.444;2023-04-15T09:46:43;11.00;;;6.65;;
31660;SDS011;18267;52.234;7.444;2023-04-15T09:49:09;12.32;;;6.47;;
31660;SDS011;18267;52.234;7.444;2023-04-15T09:51:37;12.15;;;6.78;;
31660;SDS011;18267;52.234;7.444;2023-04-15T09:54:03;8.48;;;5.55;;
31660;SDS011;18267;52.234;7.444;2023-04-15T09:56:36;7.90;;;5.53;;
31660;SDS011;18267;52.234;7.444;2023-04-15T09:59:06;8.27;;;5.25;;
31660;SDS011;18267;52.234;7.444;2023-04-15T10:01:32;9.32;;;5.38;;
31660;SDS011;18267;52.234;7.444;2023-04-15T10:03:58;11.60;;;5.55;;
31660;SDS011;18267;52.234;7.444;2023-04-15T10:06:27;11.15;;;5.47;;
31660;SDS011;18267;52.234;7.444;2023-04-15T10:08:54;8.70;;;5.55;;
31660;SDS011;18267;52.234;7.444;2023-04-15T10:11:21;12.38;;;5.43;;
31660;SDS011;18267;52.234;7.444;2023-04-15T10:13:48;10.15;;;5.18;;
31660;SDS011;18267;52.234;7.444;2023-04-15T10:16:14;7.93;;;5.25;;
31660;SDS011;18267;52.234;7.444;2023-04-15T10:18:43;7.20;;;4.25;;
31660;SDS011;18267;52.234;7.444;2023-04-15T10:21:11;8.40;;;4.30;;
31660;SDS011;18267;52.234;7.444;2023-04-15T10:23:42;8.40;;;4.88;;
31660;SDS011;18267;52.234;7.444;2023-04-15T10:26:11;7.82;;;4.25;;
31660;SDS011;18267;52.234;7.444;2023-04-15T10:28:38;10.10;;;4.90;;
31660;SDS011;18267;52.234;7.444;2023-04-15T10:31:05;9.32;;;4.40;;
31660;SDS011;18267;52.234;7.444;2023-04-15T10:33:31;7.63;;;4.43;;
31660;SDS011;18267;52.234;7.444;2023-04-15T10:35:58;15.65;;;6.63;;
31660;SDS011;18267;52.234;7.444;2023-04-15T10:38:34;9.38;;;5.78;;
31660;SDS011;18267;52.234;7.444;2023-04-15T10:46:41;5.38;;;4.00;;
31660;SDS011;18267;52.234;7.444;2023-04-15T10:49:09;7.68;;;4.00;;
31660;SDS011;18267;52.234;7.444;2023-04-15T10:51:40;9.50;;;4.43;;
31660;SDS011;18267;52.234;7.444;2023-04-15T10:56:40;7.10;;;3.72;;
31660;SDS011;18267;52.234;7.444;2023-04-15T10:59:07;6.90;;;3.25;;
31660;SDS011;18267;52.234;7.444;2023-04-15T11:01:48;9.15;;;4.47;;
31660;SDS011;18267;52.234;7.444;2023-04-15T11:04:34;6.20;;;3.60;;
31660;SDS011;18267;52.234;7.444;2023-04-15T11:07:59;4.95;;;3.63;;
31660;SDS011;18267;52.234;7.444;2023-04-15T11:12:37;6.53;;;2.88;;
31660;SDS011;18267;52.234;7.444;2023-04-15T11:17:54;3.28;;;2.85;;
31660;SDS011;18267;52.234;7.444;2023-04-15T11:20:21;3.33;;;2.63;;
31660;SDS011;18267;52.234;7.444;2023-04-15T11:22:47;4.43;;;2.55;;
31660;SDS011;18267;52.234;7.444;2023-04-15T11:25:23;6.38;;;3.17;;
31660;SDS011;18267;52.234;7.444;2023-04-15T11:27:51;4.38;;;3.08;;
31660;SDS011;18267;52.234;7.444;2023-04-15T11:30:18;5.45;;;3.40;;
31660;SDS011;18267;52.234;7.444;2023-04-15T11:32:46;5.68;;;2.97;;
31660;SDS011;18267;52.234;7.444;2023-04-15T11:35:12;5.72;;;3.63;;
31660;SDS011;18267;52.234;7.444;2023-04-15T11:37:38;7.72;;;2.80;;
31660;SDS011;18267;52.234;7.444;2023-04-15T11:40:04;3.88;;;2.95;;
31660;SDS011;18267;52.234;7.444;2023-04-15T11:42:31;5.13;;;3.30;;
31660;SDS011;18267;52.234;7.444;2023-04-15T11:45:09;5.72;;;2.78;;
31660;SDS011;18267;52.234;7.444;2023-04-15T11:47:37;4.38;;;2.78;;
31660;SDS011;18267;52.234;7.444;2023-04-15T11:53:00;7.53;;;2.83;;
31660;SDS011;18267;52.234;7.444;2023-04-15T11:55:28;5.38;;;2.35;;
31660;SDS011;18267;52.234;7.444;2023-04-15T11:58:08;3.22;;;2.13;;
31660;SDS011;18267;52.234;7.444;2023-04-15T12:00:38;4.13;;;2.97;;
31660;SDS011;18267;52.234;7.444;2023-04-15T12:06:09;3.55;;;2.00;;
31660;SDS011;18267;52.234;7.444;2023-04-15T12:11:39;2.97;;;1.70;;
31660;SDS011;18267;52.234;7.444;2023-04-15T12:16:40;4.82;;;2.33;;
31660;SDS011;18267;52.234;7.444;2023-04-15T12:19:11;2.58;;;2.20;;
31660;SDS011;18267;52.234;7.444;2023-04-15T12:21:40;2.45;;;2.25;;
31660;SDS011;18267;52.234;7.444;2023-04-15T12:24:09;2.72;;;1.90;;
31660;SDS011;18267;52.234;7.444;2023-04-15T12:29:09;4.30;;;2.33;;
31660;SDS011;18267;52.234;7.444;2023-04-15T12:31:35;4.65;;;2.75;;
31660;SDS011;18267;52.234;7.444;2023-04-15T12:34:02;3.80;;;2.55;;
31660;SDS011;18267;52.234;7.444;2023-04-15T12:36:31;3.03;;;1.95;;
31660;SDS011;18267;52.234;7.444;2023-04-15T12:39:00;2.33;;;2.13;;
31660;SDS011;18267;52.234;7.444;2023-04-15T12:41:27;2.97;;;2.30;;
31660;SDS011;18267;52.234;7.444;2023-04-15T12:43:53;7.53;;;2.25;;
31660;SDS011;18267;52.234;7.444;2023-04-15T12:46:18;2.78;;;2.20;;
31660;SDS011;18267;52.234;7.444;2023-04-15T12:48:44;2.65;;;2.33;;
31660;SDS011;18267;52.234;7.444;2023-04-15T12:51:10;3.30;;;2.30;;
31660;SDS011;18267;52.234;7.444;2023-04-15T12:53:35;6.25;;;2.08;;
31660;SDS011;18267;52.234;7.444;2023-04-15T12:56:01;7.32;;;2.75;;
31660;SDS011;18267;52.234;7.444;2023-04-15T12:58:26;7.40;;;2.67;;
31660;SDS011;18267;52.234;7.444;2023-04-15T13:00:52;4.18;;;2.15;;
31660;SDS011;18267;52.234;7.444;2023-04-15T13:03:18;3.65;;;2.45;;
31660;SDS011;18267;52.234;7.444;2023-04-15T13:05:43;4.78;;;2.13;;
31660;SDS011;18267;52.234;7.444;2023-04-15T13:08:09;3.00;;;2.28;;
31660;SDS011;18267;52.234;7.444;2023-04-15T13:10:35;3.45;;;2.45;;
31660;SDS011;18267;52.234;7.444;2023-04-15T13:13:01;3.58;;;2.15;;
31660;SDS011;18267;52.234;7.444;2023-04-15T13:15:28;4.50;;;2.55;;
31660;SDS011;18267;52.234;7.444;2023-04-15T13:17:54;4.72;;;3.15;;
31660;SDS011;18267;52.234;7.444;2023-04-15T13:20:19;7.18;;;2.90;;
31660;SDS011;18267;52.234;7.444;2023-04-15T13:22:45;4.63;;;1.90;;
31660;SDS011;18267;52.234;7.444;2023-04-15T13:25:10;4.10;;;1.92;;
31660;SDS011;18267;52.234;7.444;2023-04-15T13:27:36;4.18;;;1.80;;
31660;SDS011;18267;52.234;7.444;2023-04-15T13:30:02;3.90;;;2.50;;
31660;SDS011;18267;52.234;7.444;2023-04-15T13:32:29;4.70;;;2.05;;
31660;SDS011;18267;52.234;7.444;2023-04-15T13:34:54;4.95;;;2.72;;
31660;SDS011;18267;52.234;7.444;2023-04-15T13:37:21;4.20;;;2.35;;
31660;SDS011;18267;52.234;7.444;2023-04-15T13:39:53;2.78;;;2.20;;
31660;SDS011;18267;52.234;7.444;2023-04-15T13:42:20;6.40;;;2.45;;
31660;SDS011;18267;52.234;7.444;2023-04-15T13:44:46;2.67;;;2.10;;
31660;SDS011;18267;52.234;7.444;2023-04-15T13:47:12;2.85;;;1.85;;
31660;SDS011;18267;52.234;7.444;2023-04-15T13:49:39;5.93;;;2.20;;
31660;SDS011;18267;52.234;7.444;2023-04-15T13:52:05;3.45;;;2.40;;
31660;SDS011;18267;52.234;7.444;2023-04-15T13:54:30;3.05;;;2.42;;
31660;SDS011;18267;52.234;7.444;2023-04-15T13:56:56;3.72;;;1.80;;
31660;SDS011;18267;52.234;7.444;2023-04-15T13:59:22;3.20;;;2.58;;
31660;SDS011;18267;52.234;7.444;2023-04-15T14:01:48;2.88;;;2.30;;
31660;SDS011;18267;52.234;7.444;2023-04-15T14:04:14;2.63;;;2.10;;
31660;SDS011;18267;52.234;7.444;2023-04-15T14:06:40;5.47;;;2.60;;
31660;SDS011;18267;52.234;7.444;2023-04-15T14:09:06;3.60;;;2.28;;
31660;SDS011;18267;52.234;7.444;2023-04-15T14:11:32;3.83;;;2.15;;
31660;SDS011;18267;52.234;7.444;2023-04-15T14:13:59;4.55;;;2.40;;
31660;SDS011;18267;52.234;7.444;2023-04-15T14:16:25;12.00;;;2.65;;
31660;SDS011;18267;52.234;7.444;2023-04-15T14:18:50;1.98;;;1.85;;
31660;SDS011;18267;52.234;7.444;2023-04-15T14:21:16;4.28;;;2.33;;
31660;SDS011;18267;52.234;7.444;2023-04-15T14:27:05;2.88;;;1.70;;
31660;SDS011;18267;52.234;7.444;2023-04-15T14:29:33;3.60;;;2.03;;
31660;SDS011;18267;52.234;7.444;2023-04-15T14:31:59;5.57;;;2.25;;
31660;SDS011;18267;52.234;7.444;2023-04-15T14:34:24;4.47;;;1.80;;
31660;SDS011;18267;52.234;7.444;2023-04-15T14:36:50;2.40;;;2.20;;
31660;SDS011;18267;52.234;7.444;2023-04-15T14:39:18;4.95;;;2.25;;
31660;SDS011;18267;52.234;7.444;2023-04-15T14:41:45;5.40;;;1.77;;
31660;SDS011;18267;52.234;7.444;2023-04-15T14:44:10;2.42;;;1.80;;
31660;SDS011;18267;52.234;7.444;2023-04-15T14:46:36;3.70;;;1.30;;
31660;SDS011;18267;52.234;7.444;2023-04-15T14:49:02;1.48;;;1.30;;
31660;SDS011;18267;52.234;7.444;2023-04-15T14:51:29;1.85;;;1.63;;
31660;SDS011;18267;52.234;7.444;2023-04-15T14:53:55;5.75;;;1.92;;
31660;SDS011;18267;52.234;7.444;2023-04-15T14:56:21;2.58;;;1.80;;
31660;SDS011;18267;52.234;7.444;2023-04-15T14:58:46;4.03;;;1.88;;
31660;SDS011;18267;52.234;7.444;2023-04-15T15:01:13;3.17;;;2.50;;
31660;SDS011;18267;52.234;7.444;2023-04-15T15:03:38;5.63;;;2.38;;
31660;SDS011;18267;52.234;7.444;2023-04-15T15:06:04;6.22;;;2.58;;
31660;SDS011;18267;52.234;7.444;2023-04-15T15:08:30;6.97;;;3.10;;
31660;SDS011;18267;52.234;7.444;2023-04-15T15:10:55;5.05;;;3.00;;
31660;SDS011;18267;52.234;7.444;2023-04-15T15:13:21;7.22;;;3.38;;
31660;SDS011;18267;52.234;7.444;2023-04-15T15:15:46;9.02;;;3.15;;
31660;SDS011;18267;52.234;7.444;2023-04-15T15:18:13;8.18;;;3.60;;
31660;SDS011;18267;52.234;7.444;2023-04-15T15:20:40;5.80;;;3.22;;
31660;SDS011;18267;52.234;7.444;2023-04-15T15:23:06;9.77;;;3.95;;